YQD weather

The Pas Airport
The Pas, Manitoba, Canada

Public forecast

Using degrees Celsius for public forecast. Weather courtesy of forecast.io.

Current aviation weather report (METAR) for The Pas Airport

Retrieved 2020/07/04 21:00 UTC (26 minutes ago):

CYQD 042100Z AUTO 11008KT 090V160 9SM FEW130 28/15 A2993 RMK SLP136 DENSITY ALT 2500FT

Aviation forecast (TAF) for The Pas Airport

Retrieved 2020/07/04 19:39 UTC (2 hours ago):

TAF CYQD 041838Z 0419/0507 12012KT P6SM SCT140 BKN240 BECMG 0419/0421 33008KT FM050000 36005KT P6SM SCT080 FM050300 VRB03KT P6SM SKC RMK FCST BASED ON AUTO OBS NXT FCST BY 050100Z